Time;durP1;ratioP1;P1;durP2;ratioP2;P2;SDS_P1;SDS_P2;PMS_P1;PMS_P2;Temp;Humidity;BMP_temperature;BMP_pressure;BME280_temperature;BME280_humidity;BME280_pressure;Samples;Min_cycle;Max_cycle;Signal;HPM_P1;HPM_P2
2022/01/20 00:00:45;;;;;;;13.98;4.57;;;;;;;12.99;43.45;103510.06;4996639;28;20035;-80
2022/01/20 00:03:18;;;;;;;14.32;3.80;;;;;;;12.88;43.93;103513.00;4996977;28;20053;-72
2022/01/20 00:28:02;;;;;;;6.82;3.42;;;;;;;12.80;43.17;103502.50;4996188;28;20509;-72
2022/01/20 00:30:52;;;;;;;13.13;4.57;;;;;;;12.83;43.12;103505.53;4994822;28;20057;-74
2022/01/20 00:33:42;;;;;;;14.55;4.15;;;;;;;12.81;43.10;103501.41;4995999;28;20121;-73
2022/01/20 00:38:36;;;;;;;18.27;7.30;;;;;;;12.93;43.69;103516.63;4996264;28;20033;-73
2022/01/20 00:41:02;;;;;;;18.88;4.82;;;;;;;13.14;43.45;103505.78;4995854;28;20113;-73
2022/01/20 00:43:28;;;;;;;12.27;3.00;;;;;;;13.25;43.52;103505.63;4995864;28;20053;-73
2022/01/20 00:45:54;;;;;;;16.40;5.35;;;;;;;13.30;44.08;103513.91;4994591;28;20030;-73
2022/01/20 00:48:20;;;;;;;16.45;4.53;;;;;;;13.47;43.83;103515.66;4995800;28;20033;-73
2022/01/20 00:50:47;;;;;;;12.13;4.68;;;;;;;13.38;44.46;103517.25;4995668;28;20041;-73
2022/01/20 00:53:13;;;;;;;15.30;3.85;;;;;;;13.56;44.04;103505.81;4995705;28;20026;-73
2022/01/20 00:55:39;;;;;;;16.35;3.90;;;;;;;13.61;43.88;103516.84;4994369;28;20080;-73
2022/01/20 00:58:05;;;;;;;9.80;2.95;;;;;;;13.50;44.63;103523.38;4995515;28;20473;-73
2022/01/20 01:00:31;;;;;;;17.17;3.50;;;;;;;13.66;44.25;103538.84;4994177;28;20472;-73
2022/01/20 01:02:57;;;;;;;12.85;3.85;;;;;;;13.77;44.04;103548.81;4994228;28;20054;-73
2022/01/20 01:05:24;;;;;;;8.40;4.15;;;;;;;13.85;43.65;103553.81;4994982;28;20033;-73
2022/01/20 01:07:52;;;;;;;16.55;4.50;;;;;;;13.80;43.65;103562.00;4995430;28;20463;-73
2022/01/20 01:10:22;;;;;;;14.73;3.85;;;;;;;13.77;43.55;103558.97;4995425;28;20105;-73
2022/01/20 01:13:02;;;;;;;;;;;;;;;13.57;43.30;103557.75;4995785;28;20030;-73
2022/01/20 01:15:34;;;;;;;14.15;3.33;;;;;;;13.54;43.56;103554.72;4995343;28;19913;-73
2022/01/20 01:23:26;;;;;;;12.30;5.05;;;;;;;13.21;43.31;103553.09;4995233;28;20057;-73
2022/01/20 01:25:55;;;;;;;19.65;4.63;;;;;;;13.16;43.18;103558.53;4995179;28;20080;-72
2022/01/20 01:28:22;;;;;;;14.93;3.90;;;;;;;13.14;42.98;103566.19;4995004;28;20533;-72
2022/01/20 01:33:17;;;;;;;10.98;4.68;;;;;;;13.09;43.01;103568.91;4995285;28;20034;-73
2022/01/20 01:35:43;;;;;;;16.92;4.15;;;;;;;13.08;43.08;103565.31;4994917;28;20425;-80
2022/01/20 01:40:38;;;;;;;30.40;11.13;;;;;;;13.12;43.20;103560.13;4993625;28;20034;-73
2022/01/20 01:43:12;;;;;;;18.88;6.65;;;;;;;13.17;43.38;103565.66;4994783;28;20050;-73
2022/01/20 01:45:40;;;;;;;23.45;5.95;;;;;;;13.23;43.49;103568.22;4994805;28;20038;-77
2022/01/20 01:48:06;;;;;;;15.13;3.95;;;;;;;13.56;42.81;103569.84;4994678;28;20026;-73
2022/01/20 01:50:32;;;;;;;17.15;5.95;;;;;;;13.64;42.85;103571.25;4994870;28;20366;-73
2022/01/20 01:53:03;;;;;;;18.02;4.10;;;;;;;13.60;42.93;103575.63;4994590;28;20029;-74
2022/01/20 01:55:30;;;;;;;18.13;3.72;;;;;;;13.67;42.86;103564.41;4994584;28;20058;-73
2022/01/20 01:57:55;;;;;;;13.15;4.15;;;;;;;13.66;42.67;103571.00;4994566;28;20416;-77
2022/01/20 02:00:22;;;;;;;19.75;3.58;;;;;;;13.68;43.03;103579.78;4994342;28;20030;-73
2022/01/20 02:02:47;;;;;;;12.90;3.33;;;;;;;13.70;42.92;103575.69;4994390;28;20061;-73
2022/01/20 02:05:16;;;;;;;17.70;3.40;;;;;;;13.67;43.03;103578.13;4994380;28;20026;-73
2022/01/20 02:21:00;;;;;;;15.05;2.72;;;;;;;13.64;43.04;103601.47;4994062;28;20062;-73
2022/01/20 02:23:26;;;;;;;17.15;6.00;;;;;;;13.72;42.86;103595.50;4993982;28;20035;-73
2022/01/20 02:25:53;;;;;;;10.57;3.15;;;;;;;13.70;43.07;103597.69;4993990;28;20029;-73
2022/01/20 02:28:19;;;;;;;14.55;3.15;;;;;;;13.79;42.82;103587.84;4993862;28;20473;-73
2022/01/20 02:30:45;;;;;;;12.93;2.92;;;;;;;13.69;43.11;103596.03;4992586;28;20133;-73
2022/01/20 02:33:16;;;;;;;12.50;3.85;;;;;;;13.73;43.15;103597.13;4993901;28;20049;-72
2022/01/20 02:35:45;;;;;;;17.45;3.80;;;;;;;13.83;42.72;103599.97;4994030;28;20453;-73
2022/01/20 02:38:20;;;;;;;16.07;3.60;;;;;;;13.74;42.96;103595.22;4993643;28;20038;-73
2022/01/20 02:46:05;;;;;;;17.50;4.00;;;;;;;13.86;42.56;103607.69;4993995;28;20038;-74
2022/01/20 02:48:30;;;;;;;11.93;2.85;;;;;;;13.86;42.53;103623.34;4993700;28;20038;-74
2022/01/20 02:50:57;;;;;;;15.70;3.08;;;;;;;13.86;42.52;103618.66;4993682;28;20034;-76
2022/01/20 02:53:23;;;;;;;17.00;3.30;;;;;;;13.81;42.41;103624.13;4993586;28;20081;-79
2022/01/20 02:55:49;;;;;;;13.48;4.05;;;;;;;13.76;42.62;103615.03;4993804;28;20389;-81
2022/01/20 02:58:14;;;;;;;13.50;3.22;;;;;;;13.71;42.43;103610.31;4993473;28;20030;-75
2022/01/20 03:00:40;;;;;;;14.05;4.28;;;;;;;13.67;42.79;103609.19;4993249;28;20026;-80
2022/01/20 03:03:06;;;;;;;19.55;4.10;;;;;;;13.71;42.49;103612.25;4993328;28;20030;-73
2022/01/20 03:05:33;;;;;;;10.90;3.75;;;;;;;13.70;42.44;103616.09;4993347;28;20030;-72
2022/01/20 03:08:00;;;;;;;17.15;5.25;;;;;;;13.66;42.54;103625.94;4993308;28;20038;-72
2022/01/20 03:10:27;;;;;;;12.57;3.95;;;;;;;13.64;42.26;103628.13;4993226;28;20026;-73
2022/01/20 03:12:53;;;;;;;16.33;3.65;;;;;;;13.64;42.33;103633.63;4993114;28;20074;-72
2022/01/20 03:15:18;;;;;;;12.98;3.10;;;;;;;13.64;42.52;103637.19;4993136;28;20034;-73
2022/01/20 03:17:44;;;;;;;23.63;4.75;;;;;;;13.65;42.46;103633.34;4993219;28;20030;-73
2022/01/20 03:20:11;;;;;;;11.00;3.15;;;;;;;13.59;42.40;103631.66;4993081;28;20114;-72
2022/01/20 03:22:36;;;;;;;19.33;4.05;;;;;;;13.49;42.32;103631.59;4993037;28;20401;-73
2022/01/20 03:25:02;;;;;;;9.20;2.50;;;;;;;13.45;42.48;103627.69;4993066;28;20038;-73
2022/01/20 03:27:28;;;;;;;11.90;3.20;;;;;;;13.36;42.19;103637.50;4992983;28;20038;-81
2022/01/20 03:29:54;;;;;;;14.20;4.38;;;;;;;13.27;42.15;103627.00;4993034;28;20045;-73
2022/01/20 03:32:19;;;;;;;10.68;2.72;;;;;;;13.24;42.08;103634.97;4993075;28;20080;-72
2022/01/20 03:34:45;;;;;;;9.55;2.50;;;;;;;13.16;42.04;103635.41;4991819;28;20034;-75
2022/01/20 03:37:10;;;;;;;9.52;2.10;;;;;;;12.95;42.29;103640.69;4992757;28;20058;-74
2022/01/20 03:39:36;;;;;;;11.85;4.10;;;;;;;12.87;42.55;103645.81;4992937;28;20050;-73
2022/01/20 03:42:02;;;;;;;8.45;3.17;;;;;;;12.78;42.32;103642.69;4992945;28;20030;-76
2022/01/20 03:44:28;;;;;;;11.70;3.38;;;;;;;12.73;42.42;103645.38;4993183;28;20030;-72
2022/01/20 03:46:53;;;;;;;11.10;2.72;;;;;;;12.66;42.43;103645.56;4992932;28;20493;-72
2022/01/20 03:49:37;;;;;;;12.95;2.88;;;;;;;12.63;42.19;103645.25;4992909;28;20042;-72
2022/01/20 03:52:04;;;;;;;14.43;2.88;;;;;;;12.49;42.44;103647.56;4992994;28;20462;-77
2022/01/20 03:54:30;;;;;;;11.35;3.33;;;;;;;12.49;42.30;103650.31;4992835;28;20031;-73
2022/01/20 03:56:56;;;;;;;9.70;2.30;;;;;;;12.46;42.30;103650.78;4992739;28;20504;-75
2022/01/20 03:59:22;;;;;;;6.97;2.70;;;;;;;12.46;42.17;103642.56;4992631;28;20023;-72
2022/01/20 04:01:48;;;;;;;17.80;3.65;;;;;;;12.39;42.26;103636.44;4991487;28;20076;-73
2022/01/20 04:04:13;;;;;;;15.55;3.45;;;;;;;12.37;42.42;103631.22;4992725;28;20019;-74
2022/01/20 04:06:39;;;;;;;13.73;3.83;;;;;;;12.41;42.36;103631.56;4992716;28;20032;-72
2022/01/20 04:09:05;;;;;;;20.08;3.40;;;;;;;12.38;42.43;103632.88;4992439;28;20034;-72
2022/01/20 04:11:31;;;;;;;12.35;3.00;;;;;;;12.36;42.35;103645.19;4992755;28;20026;-72
2022/01/20 04:13:57;;;;;;;13.05;4.47;;;;;;;12.35;42.30;103643.53;4992664;28;20393;-73
2022/01/20 04:16:39;;;;;;;14.15;3.72;;;;;;;12.31;42.30;103651.44;4992785;28;20113;-72
2022/01/20 04:19:11;;;;;;;12.73;3.25;;;;;;;12.29;42.24;103647.28;4991274;28;20025;-73
2022/01/20 04:21:39;;;;;;;13.82;3.33;;;;;;;12.27;42.34;103641.25;4992541;28;20026;-73
2022/01/20 04:24:06;;;;;;;10.57;2.65;;;;;;;12.26;42.39;103642.31;4989840;28;20019;-72
2022/01/20 04:26:35;;;;;;;14.43;3.25;;;;;;;12.22;42.46;103640.06;4992631;28;20027;-72
2022/01/20 04:29:01;;;;;;;22.90;3.75;;;;;;;12.25;42.30;103637.94;4992618;28;20420;-73
2022/01/20 04:31:30;;;;;;;18.40;4.20;;;;;;;12.21;42.32;103646.66;4992552;28;20037;-73
2022/01/20 04:33:57;;;;;;;8.38;2.53;;;;;;;12.13;42.53;103647.09;4992406;28;20057;-73
2022/01/20 04:36:24;;;;;;;15.05;3.92;;;;;;;12.16;42.44;103653.97;4992354;28;20033;-73
2022/01/20 04:38:50;;;;;;;10.65;3.75;;;;;;;12.17;42.36;103667.44;4992918;28;20027;-72
2022/01/20 04:41:16;;;;;;;13.75;2.58;;;;;;;12.12;42.46;103666.53;4996280;28;20045;-77
2022/01/20 04:43:41;;;;;;;8.65;2.38;;;;;;;12.11;42.50;103667.63;4995835;28;20026;-72
2022/01/20 04:46:23;;;;;;;10.20;2.65;;;;;;;12.02;42.48;103660.91;4995953;28;20040;-74
2022/01/20 04:57:03;;;;;;;15.55;3.75;;;;;;;11.96;42.47;103668.22;4995874;28;20063;-72
2022/01/20 04:57:17;;;;;;;10.27;3.00;;;;;;;12.04;42.66;103689.72;4996027;28;20389;-72
2022/01/20 04:59:47;;;;;;;17.15;2.83;;;;;;;12.02;42.52;103686.41;4994388;28;20117;-72
2022/01/20 05:02:13;;;;;;;12.93;2.47;;;;;;;11.97;42.79;103688.22;4995657;28;20037;-73
2022/01/20 05:04:40;;;;;;;18.77;3.20;;;;;;;11.92;42.58;103697.19;4995829;28;20022;-72
2022/01/20 05:07:07;;;;;;;13.02;2.47;;;;;;;11.77;42.58;103700.47;4995445;28;20027;-72
2022/01/20 05:09:33;;;;;;;15.80;2.63;;;;;;;11.62;42.90;103701.06;4994124;28;20551;-72
2022/01/20 05:12:03;;;;;;;12.02;2.67;;;;;;;11.61;42.63;103704.88;4994186;28;20381;-72
2022/01/20 05:14:29;;;;;;;10.90;2.95;;;;;;;11.58;42.85;103716.34;4994112;28;20031;-72
2022/01/20 05:16:56;;;;;;;20.25;3.47;;;;;;;11.62;42.75;103716.66;4995581;28;20113;-72
2022/01/20 05:19:27;;;;;;;9.00;3.13;;;;;;;11.60;42.84;103721.56;4995324;28;20073;-73
2022/01/20 05:21:53;;;;;;;17.40;4.28;;;;;;;11.67;42.67;103712.09;4995284;28;20055;-72
2022/01/20 05:24:18;;;;;;;15.38;3.35;;;;;;;11.70;42.92;103726.38;4995173;28;20062;-72
2022/01/20 05:26:44;;;;;;;16.65;4.38;;;;;;;11.72;43.14;103708.63;4995182;28;20030;-72
2022/01/20 05:29:10;;;;;;;17.25;4.88;;;;;;;11.74;43.62;103719.34;4995278;28;20121;-72
2022/01/20 05:31:35;;;;;;;12.50;3.65;;;;;;;11.87;43.62;103730.84;4993866;28;20038;-73
2022/01/20 05:34:01;;;;;;;23.50;6.93;;;;;;;11.95;43.44;103726.84;4995055;28;20153;-72
2022/01/20 05:36:27;;;;;;;14.55;3.28;;;;;;;12.00;43.45;103726.91;4994755;28;20061;-72
2022/01/20 05:38:54;;;;;;;21.05;3.40;;;;;;;12.01;43.73;103728.56;4995229;28;20054;-72
2022/01/20 05:41:20;;;;;;;20.27;4.55;;;;;;;12.21;43.89;103720.66;4994795;28;20547;-73
2022/01/20 05:43:45;;;;;;;18.83;3.65;;;;;;;12.36;43.69;103722.78;4994788;28;20030;-73
2022/01/20 05:46:13;;;;;;;18.55;4.30;;;;;;;12.43;43.63;103717.97;4993574;28;20069;-72
2022/01/20 05:48:46;;;;;;;17.50;4.22;;;;;;;12.54;43.67;103707.13;4994750;28;20129;-73
2022/01/20 05:51:11;;;;;;;24.75;7.10;;;;;;;12.55;43.82;103709.63;4994735;28;20027;-73
2022/01/20 05:53:37;;;;;;;17.90;5.20;;;;;;;12.49;43.91;103708.72;4994657;28;20033;-74
2022/01/20 05:56:03;;;;;;;22.10;5.90;;;;;;;12.51;43.80;103708.47;4994715;28;20042;-80
2022/01/20 05:58:29;;;;;;;23.42;5.20;;;;;;;12.49;43.76;103711.47;4993272;28;20076;-73
2022/01/20 06:00:55;;;;;;;14.98;5.28;;;;;;;12.43;43.80;103717.13;4994528;28;20065;-80
2022/01/20 06:03:36;;;;;;;19.48;4.57;;;;;;;12.31;43.84;103730.94;4994376;28;20054;-79
2022/01/20 06:06:05;;;;;;;14.23;4.00;;;;;;;12.37;43.69;103726.38;4994495;28;20026;-72
2022/01/20 06:08:31;;;;;;;21.00;4.00;;;;;;;12.35;43.70;103743.06;4994320;28;20018;-73
2022/01/20 06:10:56;;;;;;;14.38;5.60;;;;;;;12.42;43.51;103740.16;4994335;28;20400;-73
2022/01/20 06:13:22;;;;;;;15.93;3.40;;;;;;;12.36;43.53;103754.88;4994311;28;20030;-73
2022/01/20 06:15:48;;;;;;;10.95;3.85;;;;;;;12.30;43.59;103755.88;4994307;28;20023;-79
2022/01/20 06:18:14;;;;;;;13.70;4.95;;;;;;;12.22;43.76;103755.22;4994127;28;20401;-72
2022/01/20 06:20:40;;;;;;;17.80;4.00;;;;;;;12.25;43.72;103764.03;4994004;28;20027;-81
2022/01/20 06:23:07;;;;;;;14.63;3.40;;;;;;;12.16;43.78;103769.09;4994040;28;20026;-72
2022/01/20 06:25:33;;;;;;;11.65;3.25;;;;;;;12.12;43.67;103774.25;4994037;28;20465;-73
2022/01/20 06:27:59;;;;;;;12.88;3.50;;;;;;;12.10;43.78;103767.38;4993985;28;20033;-72
2022/01/20 06:30:25;;;;;;;14.48;2.95;;;;;;;12.08;43.70;103773.06;4993785;28;20037;-73
2022/01/20 06:32:52;;;;;;;15.07;3.72;;;;;;;12.09;43.58;103784.88;4993844;28;20105;-73
2022/01/20 06:35:17;;;;;;;20.13;4.57;;;;;;;12.10;43.57;103790.13;4993841;28;20022;-73
2022/01/20 06:37:43;;;;;;;17.92;3.90;;;;;;;12.03;43.66;103794.94;4993650;28;20043;-72
2022/01/20 06:40:09;;;;;;;14.15;3.97;;;;;;;12.03;43.56;103800.41;4993814;28;20048;-72
2022/01/20 06:42:35;;;;;;;11.63;4.70;;;;;;;11.93;43.66;103802.97;4993766;28;20462;-72
2022/01/20 06:45:02;;;;;;;11.13;3.33;;;;;;;11.90;43.79;103803.47;4993680;28;20042;-77
2022/01/20 06:47:28;;;;;;;20.95;3.47;;;;;;;11.82;44.04;103799.22;4993683;28;20030;-73
2022/01/20 06:49:54;;;;;;;13.07;3.15;;;;;;;11.87;43.97;103796.59;4993628;28;20033;-73
2022/01/20 06:52:19;;;;;;;12.98;2.92;;;;;;;11.88;44.01;103806.47;4993636;28;20030;-72
2022/01/20 06:54:45;;;;;;;15.50;3.40;;;;;;;11.95;43.72;103811.81;4993781;28;20377;-80
2022/01/20 06:57:10;;;;;;;15.32;3.65;;;;;;;11.94;43.74;103818.38;4993519;28;20022;-72
2022/01/20 06:59:36;;;;;;;11.70;3.58;;;;;;;11.89;43.96;103826.47;4993366;28;20037;-73
2022/01/20 07:02:02;;;;;;;15.52;3.92;;;;;;;11.83;44.12;103827.47;4993308;28;20026;-73
2022/01/20 07:04:28;;;;;;;17.33;3.45;;;;;;;11.85;44.02;103836.25;4993620;28;20396;-73
2022/01/20 07:06:54;;;;;;;17.63;3.63;;;;;;;11.80;44.04;103838.91;4993643;28;20062;-72
2022/01/20 07:09:20;;;;;;;8.32;2.60;;;;;;;11.75;44.37;103839.63;4993340;28;20432;-73
2022/01/20 07:11:45;;;;;;;9.43;3.58;;;;;;;11.75;44.24;103836.88;4993492;28;20030;-72
2022/01/20 07:14:11;;;;;;;19.58;3.40;;;;;;;11.54;44.92;103845.78;4993405;28;20437;-73
2022/01/20 07:16:37;;;;;;;11.35;3.28;;;;;;;11.48;44.58;103849.47;4993201;28;20031;-73
2022/01/20 07:19:03;;;;;;;16.38;3.28;;;;;;;11.52;44.54;103862.47;4990673;28;20034;-72
2022/01/20 07:21:28;;;;;;;15.13;4.00;;;;;;;11.58;44.50;103860.66;4989653;28;20026;-73
2022/01/20 07:23:54;;;;;;;13.50;3.83;;;;;;;11.58;44.50;103858.75;4992957;28;20431;-73
2022/01/20 07:26:20;;;;;;;18.50;5.22;;;;;;;11.60;44.63;103844.81;4991751;28;20027;-81
2022/01/20 07:28:45;;;;;;;11.63;3.20;;;;;;;11.71;44.20;103848.56;4993255;28;20496;-73
2022/01/20 07:31:11;;;;;;;13.70;3.78;;;;;;;11.79;43.86;103846.28;4991729;28;20112;-72
2022/01/20 07:33:37;;;;;;;14.48;3.28;;;;;;;11.68;44.22;103852.63;4992832;28;20029;-72
2022/01/20 07:36:04;;;;;;;19.73;3.65;;;;;;;11.75;43.98;103857.97;4992994;28;20031;-72
2022/01/20 07:38:30;;;;;;;13.68;3.80;;;;;;;11.68;44.37;103860.84;4993005;28;20504;-72
2022/01/20 07:40:56;;;;;;;13.20;3.03;;;;;;;11.81;44.29;103854.28;4992484;28;20508;-72
2022/01/20 07:43:22;;;;;;;14.07;3.42;;;;;;;11.87;44.10;103853.31;4992808;28;20101;-74
2022/01/20 07:45:48;;;;;;;17.02;3.55;;;;;;;11.92;44.03;103850.63;4992624;28;20504;-80
2022/01/20 07:48:13;;;;;;;16.42;4.72;;;;;;;11.93;43.93;103850.38;4991155;28;20045;-72
2022/01/20 07:50:39;;;;;;;18.15;6.05;;;;;;;11.82;44.37;103845.81;4992739;28;20030;-73
2022/01/20 07:53:04;;;;;;;15.18;4.53;;;;;;;11.88;44.23;103846.75;4981098;28;20033;-74
2022/01/20 07:55:31;;;;;;;16.25;4.22;;;;;;;11.94;43.99;103846.59;4976833;28;20028;-73
2022/01/20 07:57:57;;;;;;;15.10;3.40;;;;;;;11.87;44.17;103845.91;4976283;28;20045;-73
2022/01/20 08:00:23;;;;;;;17.70;3.45;;;;;;;11.89;44.13;103854.72;4977399;28;20925;-76
2022/01/20 08:02:49;;;;;;;13.75;3.65;;;;;;;11.98;43.89;103868.84;4976403;28;20018;-72
2022/01/20 08:05:14;;;;;;;20.85;3.88;;;;;;;11.99;43.88;103875.97;4976488;28;20018;-74
2022/01/20 08:07:40;;;;;;;10.70;2.83;;;;;;;12.02;43.84;103874.69;4976077;28;20417;-78
2022/01/20 08:10:06;;;;;;;13.55;3.45;;;;;;;12.06;43.68;103881.31;4976256;28;20074;-79
2022/01/20 08:12:32;;;;;;;13.38;3.42;;;;;;;11.98;44.05;103877.06;4976524;28;20022;-73
2022/01/20 08:14:59;;;;;;;15.48;3.70;;;;;;;11.97;43.67;103886.38;4978450;28;20042;-73
2022/01/20 08:17:25;;;;;;;13.27;3.67;;;;;;;11.98;44.00;103881.72;4979977;28;20022;-73
2022/01/20 08:19:52;;;;;;;14.45;3.03;;;;;;;12.14;43.75;103880.91;4992905;28;20084;-73
2022/01/20 08:22:17;;;;;;;13.15;5.20;;;;;;;11.93;44.37;103871.47;4990578;28;20026;-79
2022/01/20 08:24:49;;;;;;;13.30;3.35;;;;;;;12.02;44.50;103878.25;4987965;28;20033;-72
2022/01/20 08:27:16;;;;;;;17.15;4.45;;;;;;;12.18;44.11;103869.22;4989866;28;20361;-80
2022/01/20 08:29:42;;;;;;;17.20;5.60;;;;;;;12.12;44.18;103880.31;4994275;28;20496;-72
2022/01/20 08:32:07;;;;;;;17.42;3.78;;;;;;;12.10;44.24;103887.97;4996354;28;20110;-72
2022/01/20 08:34:33;;;;;;;15.52;3.42;;;;;;;12.25;44.12;103887.41;4996372;28;20413;-77
2022/01/20 08:36:59;;;;;;;15.50;3.80;;;;;;;12.25;44.08;103893.72;4995029;28;20481;-73
2022/01/20 08:41:53;;;;;;;10.15;4.05;;;;;;;12.33;43.89;103893.31;4994418;28;20030;-71
2022/01/20 08:44:19;;;;;;;19.70;4.53;;;;;;;12.49;43.78;103897.13;4994471;28;20024;-71
2022/01/20 08:46:46;;;;;;;18.35;6.05;;;;;;;12.46;43.79;103897.63;4994199;28;20461;-72
2022/01/20 08:49:11;;;;;;;18.88;3.90;;;;;;;12.45;43.74;103895.97;4994056;28;20030;-78
2022/01/20 08:51:37;;;;;;;18.50;4.57;;;;;;;12.50;43.86;103901.53;4994147;28;20026;-73
2022/01/20 08:54:03;;;;;;;18.65;5.32;;;;;;;12.52;43.66;103912.25;4995831;28;20048;-72
2022/01/20 08:56:29;;;;;;;9.38;3.65;;;;;;;12.47;43.68;103924.00;4994313;28;20109;-72
2022/01/20 08:58:54;;;;;;;15.60;4.72;;;;;;;12.50;43.74;103929.81;4995826;28;20469;-73
2022/01/20 09:01:20;;;;;;;17.25;4.95;;;;;;;12.48;43.79;103929.22;4995587;28;20362;-73
2022/01/20 09:03:47;;;;;;;14.77;3.97;;;;;;;12.51;43.70;103927.88;4994225;28;20030;-73
2022/01/20 09:06:12;;;;;;;15.32;4.28;;;;;;;12.53;43.77;103925.72;4995646;28;20157;-81
2022/01/20 09:08:39;;;;;;;13.05;4.35;;;;;;;12.54;43.52;103921.88;4995433;28;20105;-74
2022/01/20 09:11:17;;;;;;;24.20;4.50;;;;;;;12.47;43.61;103913.03;4995528;28;20027;-72
2022/01/20 09:16:26;;;;;;;12.15;4.32;;;;;;;12.43;43.57;103925.56;4995217;28;20049;-72
2022/01/20 09:18:52;;;;;;;14.82;4.18;;;;;;;12.46;43.62;103936.84;4995134;28;20473;-78
2022/01/20 09:21:21;;;;;;;16.40;3.70;;;;;;;12.32;43.59;103930.03;4995187;28;20038;-72
2022/01/20 09:23:47;;;;;;;20.60;4.40;;;;;;;12.29;43.79;103930.53;4995061;28;20034;-72
2022/01/20 09:26:13;;;;;;;15.18;4.00;;;;;;;12.33;43.56;103941.84;4993148;28;20034;-83
2022/01/20 09:28:39;;;;;;;14.70;3.85;;;;;;;12.32;43.40;103948.38;4995077;28;20465;-82
2022/01/20 09:31:06;;;;;;;15.52;3.92;;;;;;;12.36;43.64;103941.34;4995461;28;20034;-82
2022/01/20 09:33:31;;;;;;;19.73;4.20;;;;;;;12.40;43.59;103945.25;4995419;28;20038;-82
2022/01/20 09:35:58;;;;;;;18.38;5.18;;;;;;;12.32;43.50;103934.66;4993963;28;20096;-80
2022/01/20 09:38:25;;;;;;;18.00;4.07;;;;;;;12.33;43.65;103937.19;4993809;28;20425;-77
2022/01/20 09:40:51;;;;;;;11.75;3.28;;;;;;;12.29;43.77;103936.00;4993732;28;20030;-72
2022/01/20 09:43:17;;;;;;;18.58;3.55;;;;;;;12.33;43.52;103942.66;4985397;28;20098;-73
2022/01/20 09:45:54;;;;;;;14.27;3.63;;;;;;;12.22;43.63;103946.28;4982983;28;20035;-72
2022/01/20 09:48:24;;;;;;;14.95;5.03;;;;;;;12.41;43.44;103953.22;4993494;28;20057;-73
2022/01/20 09:50:50;;;;;;;11.73;3.65;;;;;;;12.32;43.79;103962.09;4983558;28;20030;-72
2022/01/20 09:53:16;;;;;;;15.35;4.22;;;;;;;12.44;43.68;103960.13;4984317;28;20090;-73
2022/01/20 09:55:43;;;;;;;16.40;4.22;;;;;;;12.56;43.71;103971.03;4989905;28;20026;-75
2022/01/20 09:58:09;;;;;;;16.08;3.63;;;;;;;12.60;43.92;103970.28;4992569;28;20388;-70
2022/01/20 10:00:36;;;;;;;16.27;4.25;;;;;;;12.84;43.82;103976.44;4993250;28;20026;-72
2022/01/20 10:03:08;;;;;;;13.40;4.32;;;;;;;13.01;43.96;103969.03;4990632;28;20030;-71
2022/01/20 10:05:40;;;;;;;16.60;4.90;;;;;;;13.17;43.50;103969.28;4991878;28;20027;-71
2022/01/20 10:08:16;;;;;;;13.82;3.90;;;;;;;13.33;43.63;103973.94;4990999;28;20026;-72
2022/01/20 10:10:53;;;;;;;14.27;4.43;;;;;;;13.41;43.54;103980.91;4990847;28;20048;-72
2022/01/20 10:13:24;;;;;;;16.33;4.97;;;;;;;13.57;43.23;103996.50;4992996;28;20480;-71
2022/01/20 10:15:58;;;;;;;22.90;4.25;;;;;;;13.52;43.57;104000.00;4993141;28;20019;-80
2022/01/20 10:18:24;;;;;;;21.35;4.28;;;;;;;13.77;43.20;104007.78;4986960;28;20026;-71
2022/01/20 10:21:02;;;;;;;16.58;4.30;;;;;;;13.65;43.65;104006.22;4982818;28;20105;-71
2022/01/20 10:23:37;;;;;;;14.52;4.00;;;;;;;13.65;43.62;104003.47;4990786;28;20030;-82
2022/01/20 10:26:10;;;;;;;17.83;4.28;;;;;;;13.60;43.86;103995.97;4988805;28;20105;-72
2022/01/20 10:28:57;;;;;;;19.33;4.30;;;;;;;13.64;43.67;104001.81;4992919;28;20485;-73
2022/01/20 10:31:37;;;;;;;16.02;5.40;;;;;;;13.58;43.94;104000.91;4992781;28;20026;-81
2022/01/20 10:34:06;;;;;;;26.48;6.50;;;;;;;13.75;43.75;104001.72;4990672;28;20463;-71
2022/01/20 10:36:39;;;;;;;13.98;3.90;;;;;;;13.83;43.74;104006.75;4991464;28;20517;-71
2022/01/20 10:39:05;;;;;;;17.15;5.03;;;;;;;13.80;43.73;104007.25;4992800;28;20056;-71
2022/01/20 10:41:37;;;;;;;18.17;3.92;;;;;;;13.88;43.56;104014.22;4982539;28;20114;-71
2022/01/20 10:44:04;;;;;;;15.60;4.43;;;;;;;13.94;43.49;104012.38;4990550;28;20034;-71
2022/01/20 10:46:41;;;;;;;14.85;4.15;;;;;;;13.80;43.61;104022.91;4991178;28;20488;-81
2022/01/20 10:49:07;;;;;;;16.50;4.28;;;;;;;13.98;43.40;104013.50;4991254;28;20026;-71
2022/01/20 10:51:33;;;;;;;21.67;4.78;;;;;;;14.04;43.25;104016.06;4981963;28;20473;-81
2022/01/20 10:54:07;;;;;;;11.27;3.90;;;;;;;14.05;43.43;104014.13;4992439;28;20397;-72
2022/01/20 10:56:46;;;;;;;13.82;4.38;;;;;;;14.09;43.39;104009.81;4990907;28;20384;-82
2022/01/20 10:59:12;;;;;;;18.65;4.65;;;;;;;14.11;43.46;104011.19;4992447;28;20033;-72
2022/01/20 11:01:38;;;;;;;12.95;4.63;;;;;;;14.19;43.36;104009.91;4992153;28;20485;-71
2022/01/20 11:04:04;;;;;;;14.05;4.97;;;;;;;14.16;43.39;104013.19;4981044;28;20026;-72
2022/01/20 11:06:31;;;;;;;15.55;5.10;;;;;;;14.30;43.29;104017.19;4983130;28;20022;-72
2022/01/20 11:08:57;;;;;;;10.90;5.28;;;;;;;14.32;43.36;104009.50;4982150;28;20088;-73
2022/01/20 11:11:23;;;;;;;16.92;5.15;;;;;;;14.36;43.17;104001.56;4982278;28;20030;-81
2022/01/20 11:13:49;;;;;;;16.98;5.22;;;;;;;14.32;43.22;104003.16;4992311;28;20093;-71
2022/01/20 11:16:14;;;;;;;12.00;4.40;;;;;;;14.33;43.28;103999.31;4981509;28;20022;-73
2022/01/20 11:18:42;;;;;;;31.15;12.57;;;;;;;14.32;43.28;104001.25;4992326;28;20037;-72
2022/01/20 11:21:08;;;;;;;16.83;5.95;;;;;;;14.42;43.38;104000.50;4988621;28;20022;-77
2022/01/20 11:23:42;;;;;;;31.60;17.17;;;;;;;14.62;43.02;103998.00;4981008;28;20030;-76
2022/01/20 11:26:08;;;;;;;19.33;5.22;;;;;;;14.70;43.41;104004.94;4990420;28;20036;-82
2022/01/20 11:28:34;;;;;;;17.05;5.40;;;;;;;14.91;43.20;103997.69;4990626;28;20030;-71
2022/01/20 11:31:05;;;;;;;13.70;4.00;;;;;;;14.86;43.69;104003.97;4990557;28;20030;-71
2022/01/20 11:33:43;;;;;;;17.52;5.18;;;;;;;15.10;43.08;104011.88;4991815;28;20022;-72
2022/01/20 11:36:21;;;;;;;17.92;4.57;;;;;;;15.25;43.19;104017.47;4989129;28;20034;-72
2022/01/20 11:38:47;;;;;;;14.43;4.28;;;;;;;15.47;43.01;104020.09;4988441;28;20485;-72
2022/01/20 11:41:16;;;;;;;15.65;3.85;;;;;;;15.59;43.06;104015.22;4991585;28;20045;-72
2022/01/20 11:43:44;;;;;;;15.70;4.28;;;;;;;15.78;42.59;104016.44;4987247;28;20062;-73
2022/01/20 11:46:20;;;;;;;11.57;4.05;;;;;;;15.84;42.86;104017.28;4973800;28;20059;-72
2022/01/20 11:49:00;;;;;;;14.25;4.38;;;;;;;15.91;42.57;104008.75;4994053;28;20030;-72
2022/01/20 11:51:29;;;;;;;13.93;4.78;;;;;;;16.00;42.29;104010.72;4995799;28;20054;-81
2022/01/20 11:54:04;;;;;;;18.60;4.20;;;;;;;16.17;42.06;103999.50;4984640;28;20389;-81
2022/01/20 11:56:36;;;;;;;17.45;5.03;;;;;;;16.25;41.60;103998.13;4992345;28;20393;-72
2022/01/20 11:59:08;;;;;;;11.60;3.45;;;;;;;16.12;41.67;104001.41;4995449;28;20150;-82
2022/01/20 12:01:53;;;;;;;9.00;4.22;;;;;;;16.22;41.31;104012.44;4995556;28;20362;-72
2022/01/20 12:04:38;;;;;;;13.98;4.07;;;;;;;16.34;40.71;103999.25;4994118;28;20034;-72
2022/01/20 12:07:05;;;;;;;15.50;4.25;;;;;;;16.53;41.14;104005.88;4995728;28;20655;-82
2022/01/20 12:09:35;;;;;;;11.90;3.85;;;;;;;16.71;40.61;104006.50;4995568;28;20026;-73
2022/01/20 12:12:01;;;;;;;;;;;;;;;16.65;40.09;104003.69;4995773;28;20027;-72
2022/01/20 12:14:36;;;;;;;11.85;3.63;;;;;;;16.64;40.50;104001.22;4995544;28;19921;-81
2022/01/20 12:17:05;;;;;;;10.18;4.20;;;;;;;16.65;40.53;103991.81;4994084;28;20109;-72
2022/01/20 12:19:31;;;;;;;19.17;4.97;;;;;;;16.68;40.38;103993.19;4994076;28;20378;-72
2022/01/20 12:21:56;;;;;;;12.55;4.03;;;;;;;16.71;40.36;103992.69;4995233;28;20045;-79
2022/01/20 12:24:22;;;;;;;14.20;4.38;;;;;;;16.79;40.25;103986.59;4984520;28;20102;-72